^^
Station Historical Data
 
Daily Summary for August 22, 2014 Units:  English    Metric   Both
« Previous Day
Next Day »
Daily Weekly Monthly Yearly Custom
  Current: High: Low: Average:
Temperature: 77.4 °F 77.4 °F 64.4 °F 67.7 °F
Dew Point: 71.8 °F 72.2 °F 64.1 °F 67 °F
Humidity: 83% 100% 83% 98%
Wind Speed: 0.0mph 5.0mph 0.0mph 2mph
Wind Gust: 0.4mph 5.0mph - -
WindCalm - - South
Pressure: 29.93 in 29.96 in 29.90 in -
Precipitation: 0.01 in      
Historical Graphs
 
 
Tabular Data for August 22, 2014
Time Temperature Dew Point Pressure Wind Wind Speed Wind Gust Humidity Rainfall Rate (Hourly)
00:01 65.9 °F 65.6 °F 29.93 in Calm     99% 0.00 in
00:03 65.9 °F 65.6 °F 29.93 in Calm     99% 0.00 in
00:07 65.9 °F 65.6 °F 29.93 in Calm     99% 0.00 in
00:12 65.8 °F 65.5 °F 29.93 in Calm     99% 0.00 in
00:17 65.8 °F 65.5 °F 29.92 in Calm     99% 0.00 in
00:22 65.7 °F 65.4 °F 29.92 in Calm     99% 0.00 in
00:27 65.7 °F 65.4 °F 29.92 in Calm     99% 0.00 in
00:32 65.6 °F 65.3 °F 29.93 in Calm     99% 0.00 in
00:37 65.5 °F 65.2 °F 29.93 in Calm     99% 0.00 in
00:42 65.5 °F 65.2 °F 29.93 in Calm     99% 0.00 in
00:47 65.4 °F 65.1 °F 29.93 in Calm     99% 0.00 in
00:52 65.4 °F 65.1 °F 29.93 in Calm     99% 0.00 in
00:57 65.2 °F 64.9 °F 29.93 in Calm     99% 0.00 in
01:02 65.2 °F 64.9 °F 29.93 in Calm     99% 0.00 in
01:07 65.1 °F 64.8 °F 29.92 in Calm     99% 0.00 in
01:12 65.0 °F 64.7 °F 29.93 in Calm     99% 0.00 in
01:17 64.9 °F 64.6 °F 29.93 in Calm     99% 0.00 in
01:22 64.8 °F 64.5 °F 29.92 in Calm     99% 0.00 in
01:27 64.7 °F 64.4 °F 29.92 in Calm     99% 0.00 in
01:32 64.6 °F 64.3 °F 29.92 in Calm     99% 0.00 in
01:37 64.5 °F 64.2 °F 29.92 in Calm     99% 0.00 in
01:42 64.5 °F 64.2 °F 29.92 in Calm     99% 0.00 in
01:47 64.4 °F 64.1 °F 29.92 in Calm     99% 0.00 in
01:52 64.4 °F 64.1 °F 29.92 in Calm     99% 0.00 in
01:57 64.5 °F 64.2 °F 29.92 in Calm     99% 0.00 in
02:02 64.5 °F 64.2 °F 29.92 in Calm     99% 0.00 in
02:07 64.6 °F 64.3 °F 29.92 in Calm     99% 0.00 in
02:12 64.7 °F 64.4 °F 29.91 in Calm     99% 0.00 in
02:17 64.7 °F 64.4 °F 29.91 in Calm     99% 0.00 in
02:22 64.8 °F 64.5 °F 29.91 in Calm     99% 0.00 in
02:27 64.9 °F 64.6 °F 29.91 in Calm     99% 0.00 in
02:32 64.9 °F 64.6 °F 29.91 in Calm     99% 0.00 in
02:37 64.9 °F 64.6 °F 29.91 in SW 1.2 mph   99% 0.00 in
02:42 65.0 °F 64.7 °F 29.91 in Calm     99% 0.00 in
02:47 64.9 °F 64.6 °F 29.91 in Calm     99% 0.00 in
02:52 64.9 °F 64.6 °F 29.92 in Calm     99% 0.01 in
02:57 64.9 °F 64.6 °F 29.92 in Calm     99% 0.01 in
03:02 65.0 °F 64.7 °F 29.91 in Calm     99% 0.01 in
03:07 65.0 °F 64.7 °F 29.92 in SW 1.2 mph   99% 0.01 in
03:12 64.9 °F 64.6 °F 29.92 in Calm     99% 0.01 in
03:17 64.9 °F 64.6 °F 29.92 in Calm     99% 0.01 in
03:22 64.9 °F 64.6 °F 29.92 in Calm     99% 0.01 in
03:27 64.8 °F 64.5 °F 29.92 in Calm     99% 0.01 in
03:32 64.7 °F 64.4 °F 29.91 in Calm     99% 0.01 in
03:37 64.6 °F 64.3 °F 29.92 in Calm     99% 0.01 in
03:42 64.6 °F 64.3 °F 29.91 in Calm   0.1 mph 99% 0.01 in
03:47 64.5 °F 64.2 °F 29.91 in Calm     99% 0.01 in
03:52 64.5 °F 64.2 °F 29.91 in Calm     99% 0.00 in
03:57 64.5 °F 64.2 °F 29.91 in Calm     99% 0.00 in
04:02 64.5 °F 64.2 °F 29.90 in Calm     99% 0.00 in
04:07 64.5 °F 64.2 °F 29.90 in Calm     99% 0.00 in
04:12 64.5 °F 64.2 °F 29.90 in Calm     99% 0.00 in
04:17 64.4 °F 64.1 °F 29.91 in Calm     99% 0.00 in
04:22 64.4 °F 64.1 °F 29.90 in Calm     99% 0.00 in
04:27 64.4 °F 64.1 °F 29.90 in Calm     99% 0.00 in
04:32 64.4 °F 64.1 °F 29.91 in Calm     99% 0.00 in
04:37 64.5 °F 64.2 °F 29.91 in Calm     99% 0.00 in
04:42 64.5 °F 64.2 °F 29.91 in Calm     99% 0.00 in
04:47 64.5 °F 64.2 °F 29.91 in Calm     99% 0.00 in
04:52 64.6 °F 64.3 °F 29.91 in Calm     99% 0.00 in
04:57 64.6 °F 64.3 °F 29.90 in Calm     99% 0.00 in
05:02 64.6 °F 64.3 °F 29.91 in SW 1.2 mph 1.2 mph 99% 0.00 in
05:07 64.6 °F 64.3 °F 29.90 in Calm     99% 0.00 in
05:12 64.6 °F 64.3 °F 29.90 in Calm     99% 0.00 in
05:17 64.7 °F 64.4 °F 29.90 in Calm     99% 0.00 in
05:22 64.9 °F 64.6 °F 29.91 in Calm     99% 0.00 in
05:27 65.1 °F 65.1 °F 29.91 in Calm     100% 0.00 in
05:32 65.3 °F 65.3 °F 29.91 in Calm     100% 0.00 in
05:37 65.4 °F 65.4 °F 29.91 in Calm     100% 0.00 in
05:42 65.6 °F 65.6 °F 29.91 in Calm     100% 0.00 in
05:47 65.6 °F 65.6 °F 29.91 in Calm     100% 0.00 in
05:52 65.7 °F 65.7 °F 29.92 in Calm     100% 0.00 in
05:57 65.7 °F 65.7 °F 29.92 in Calm     100% 0.00 in
06:02 65.8 °F 65.8 °F 29.92 in Calm     100% 0.00 in
06:07 65.9 °F 65.9 °F 29.92 in Calm     100% 0.00 in
06:12 65.9 °F 65.9 °F 29.93 in SW 1.2 mph   100% 0.00 in
06:18 65.9 °F 65.9 °F 29.93 in Calm     100% 0.00 in
06:23 65.8 °F 65.8 °F 29.93 in Calm     100% 0.00 in
06:28 65.6 °F 65.6 °F 29.93 in SW 1.2 mph 1.2 mph 100% 0.00 in
06:33 65.5 °F 65.5 °F 29.93 in Calm     100% 0.00 in
06:38 65.5 °F 65.5 °F 29.93 in Calm     100% 0.00 in
06:43 65.5 °F 65.5 °F 29.93 in Calm     100% 0.00 in
06:48 65.4 °F 65.4 °F 29.92 in Calm     100% 0.00 in
06:53 65.4 °F 65.4 °F 29.92 in Calm     100% 0.00 in
06:58 65.4 °F 65.4 °F 29.92 in Calm     100% 0.00 in
07:03 65.4 °F 65.4 °F 29.93 in Calm     100% 0.00 in
07:08 65.4 °F 65.4 °F 29.92 in SW 1.2 mph 1.2 mph 100% 0.00 in
07:13 65.4 °F 65.4 °F 29.93 in SW 1.2 mph   100% 0.00 in
07:18 65.5 °F 65.5 °F 29.93 in Calm     100% 0.00 in
07:23 65.6 °F 65.6 °F 29.92 in Calm     100% 0.00 in
07:28 65.6 °F 65.6 °F 29.93 in Calm     100% 0.00 in
07:33 65.7 °F 65.7 °F 29.93 in Calm     100% 0.00 in
07:38 65.9 °F 65.9 °F 29.94 in Calm     100% 0.00 in
07:43 66.0 °F 66.0 °F 29.94 in SW 1.0 mph   100% 0.00 in
07:48 66.2 °F 66.2 °F 29.94 in SW 1.2 mph   100% 0.00 in
07:53 66.4 °F 66.4 °F 29.94 in Calm   0.1 mph 100% 0.00 in
07:58 66.5 °F 66.5 °F 29.95 in SW 1.2 mph 1.2 mph 100% 0.00 in
08:03 66.6 °F 66.6 °F 29.95 in Calm     100% 0.00 in
08:08 66.7 °F 66.7 °F 29.95 in SW 1.0 mph 1.0 mph 100% 0.00 in
08:13 66.6 °F 66.6 °F 29.95 in SW 1.2 mph 1.2 mph 100% 0.00 in
08:18 66.7 °F 66.7 °F 29.95 in Calm     100% 0.00 in
08:23 66.7 °F 66.7 °F 29.95 in Calm     100% 0.00 in
08:28 66.8 °F 66.8 °F 29.95 in SW 1.2 mph 1.2 mph 100% 0.00 in
08:33 66.8 °F 66.8 °F 29.96 in Calm     100% 0.00 in
08:38 66.9 °F 66.9 °F 29.96 in Calm     100% 0.00 in
08:43 67.0 °F 67.0 °F 29.96 in Calm     100% 0.00 in
08:48 67.1 °F 67.1 °F 29.96 in SW 1.2 mph   100% 0.00 in
08:53 67.1 °F 67.1 °F 29.96 in Calm     100% 0.00 in
08:58 67.3 °F 67.3 °F 29.96 in Calm     100% 0.00 in
09:03 67.4 °F 67.4 °F 29.95 in Calm     100% 0.00 in
09:08 67.6 °F 67.6 °F 29.96 in Calm     100% 0.00 in
09:13 67.8 °F 67.8 °F 29.96 in Calm     100% 0.00 in
09:18 67.9 °F 67.9 °F 29.96 in Calm     100% 0.00 in
09:23 68.1 °F 68.1 °F 29.96 in SW 1.2 mph 1.2 mph 100% 0.00 in
09:28 68.4 °F 68.4 °F 29.96 in Calm     100% 0.00 in
09:33 68.4 °F 68.4 °F 29.96 in SW 1.2 mph 1.2 mph 100% 0.00 in
09:38 68.5 °F 68.5 °F 29.96 in SW 1.0 mph 1.0 mph 100% 0.00 in
09:43 68.5 °F 68.5 °F 29.96 in Calm     100% 0.00 in
09:48 68.6 °F 68.6 °F 29.96 in SW 2.3 mph 2.3 mph 100% 0.00 in
09:53 68.7 °F 68.7 °F 29.96 in Calm     100% 0.00 in
09:58 69.1 °F 69.1 °F 29.96 in SW 1.2 mph 1.2 mph 100% 0.00 in
10:03 69.3 °F 69.3 °F 29.96 in SW 1.2 mph   100% 0.00 in
10:08 69.4 °F 69.4 °F 29.95 in Calm     100% 0.00 in
10:13 69.5 °F 69.5 °F 29.95 in Calm     100% 0.00 in
10:18 69.6 °F 69.6 °F 29.95 in Calm     100% 0.00 in
10:23 69.9 °F 69.9 °F 29.95 in SW 1.2 mph   100% 0.00 in
10:28 70.2 °F 70.2 °F 29.95 in Calm     100% 0.00 in
10:33 70.5 °F 70.5 °F 29.95 in SW 1.2 mph   100% 0.00 in
10:38 70.7 °F 70.7 °F 29.95 in SW 1.2 mph 1.2 mph 100% 0.00 in
10:43 70.7 °F 70.7 °F 29.95 in SW 5.0 mph 5.0 mph 100% 0.00 in
10:48 70.8 °F 70.8 °F 29.95 in SW 2.3 mph 2.3 mph 100% 0.00 in
10:53 71.0 °F 71.0 °F 29.95 in North 4.6 mph 4.6 mph 100% 0.00 in
10:58 71.3 °F 71.3 °F 29.95 in Calm     100% 0.00 in
11:03 71.6 °F 71.6 °F 29.95 in North 1.0 mph   100% 0.00 in
11:08 71.6 °F 71.3 °F 29.95 in North 3.5 mph 3.5 mph 99% 0.00 in
11:13 71.8 °F 71.5 °F 29.95 in Calm     99% 0.00 in
11:18 72.1 °F 71.2 °F 29.95 in North 1.2 mph 1.2 mph 97% 0.00 in
11:23 72.5 °F 71.3 °F 29.95 in North 1.2 mph 1.2 mph 96% 0.00 in
11:28 72.9 °F 71.4 °F 29.94 in SE 4.6 mph 4.6 mph 95% 0.00 in
11:33 73.1 °F 71.3 °F 29.95 in SSE 2.3 mph 2.3 mph 94% 0.00 in
11:38 73.3 °F 71.2 °F 29.94 in SE 1.2 mph 1.2 mph 93% 0.00 in
11:43 73.4 °F 71.3 °F 29.94 in SE 2.3 mph 2.3 mph 93% 0.00 in
11:48 73.3 °F 71.2 °F 29.94 in SE 3.5 mph 3.5 mph 93% 0.00 in
11:53 73.4 °F 70.9 °F 29.95 in SE 4.6 mph 4.6 mph 92% 0.00 in
11:58 73.3 °F 70.8 °F 29.95 in SE 2.0 mph 2.0 mph 92% 0.00 in
12:03 73.3 °F 70.8 °F 29.94 in SE 1.2 mph 1.2 mph 92% 0.00 in
12:08 73.4 °F 70.9 °F 29.94 in SE 2.0 mph 2.0 mph 92% 0.00 in
12:13 73.7 °F 71.2 °F 29.94 in SE 2.3 mph 2.3 mph 92% 0.00 in
12:18 74.0 °F 71.5 °F 29.94 in SE 2.3 mph 2.3 mph 92% 0.00 in
12:23 74.3 °F 71.5 °F 29.94 in SE 3.5 mph 3.5 mph 91% 0.00 in
12:28 74.7 °F 71.9 °F 29.94 in SE 3.0 mph 3.0 mph 91% 0.00 in
12:33 74.9 °F 71.4 °F 29.94 in SE 3.5 mph 3.5 mph 89% 0.00 in
12:38 75.1 °F 71.3 °F 29.94 in Calm     88% 0.00 in
12:43 75.3 °F 71.5 °F 29.94 in SE 4.0 mph 4.0 mph 88% 0.00 in
12:48 75.5 °F 71.0 °F 29.94 in SSE 4.6 mph 4.6 mph 86% 0.00 in
12:53 75.8 °F 71.7 °F 29.94 in SE 1.2 mph 1.2 mph 87% 0.00 in
12:58 76.1 °F 71.3 °F 29.93 in SE 2.3 mph   85% 0.00 in
13:03 76.4 °F 72.2 °F 29.93 in SE 1.2 mph 1.2 mph 87% 0.00 in
13:08 76.7 °F 71.1 °F 29.93 in SE 2.3 mph 2.3 mph 83% 0.00 in
13:13 77.0 °F 71.8 °F 29.92 in SE 1.2 mph 1.2 mph 84% 0.00 in
13:18 77.2 °F 72.0 °F 29.92 in SE 1.2 mph 1.2 mph 84% 0.00 in
13:23 77.2 °F 72.0 °F 29.93 in SE 3.0 mph 3.0 mph 84% 0.00 in
13:28 77.2 °F 72.0 °F 29.93 in SE 1.2 mph 1.2 mph 84% 0.00 in
13:33 77.3 °F 71.7 °F 29.93 in Calm     83% 0.00 in
13:38 77.4 °F 71.8 °F 29.93 in Calm   0.4 mph 83% 0.00 in
Mechanicsburg,PA USA
Compliments of Weather Underground